SAZM/MDD METAR and TAF weather

Enter ICAO airport designator
Station Type Date Time Source
SAZM METAR 2019/12/14 11:00 UTC NOAA

SAZM 141100Z 32015KT CAVOK 16/12 Q1012


Station Type Date Time Source
SAZM Decoded METAR 2019/12/14 11:00 UTC NOAA

Mar Del Plata Aerodrome, Argentina (SAZM) 37-56S 057-35W 21M
Dec 14, 2019 - 06:00 AM EST / 2019.12.14 1100 UTC
Wind: from the NW (320 degrees) at 17 MPH (15 KT):0
Visibility: greater than 7 mile(s):0
Temperature: 60 F (16 C)
Dew Point: 53 F (12 C)
Relative Humidity: 77%
Pressure (altimeter): 29.88 in. Hg (1012 hPa)
ob: SAZM 141100Z 32015KT CAVOK 16/12 Q1012
cycle: 11

Station Type Date Time Source
SAZM TAF 2019/12/14 06:15 UTC NOAA

TAF SAZM 140500Z 1406/1506 34015KT CAVOK TX27/1418Z TN12/1410Z
BECMG 1412/1414 9999 BKN040
BECMG 1415/1418 15015KT SCT030 BKN040

Example: see airport list